David Allan — VNAT — position and weather

sailwx.info

Track history (hours):
 
Tides and Currents Weather Stations Pressure Air Temp Water Temp Dewpoint Dewpoint Depression Visibility Wind Speed Wind Dir Waves Ship Positions

David Allan

Last reported at 2017-Nov-22 21:59 UTC. Time now 2017-Nov-22 22:12 UTC.
Position S 32°55' E 151°46'.

Length 70 m.

Type: Dredging. MMSI: 503541000.

Date/timePositionNaut miles runAvg speedWind from/ knotsBaromVisibWave heightAir tempDewpointWater temp
2017-Nov-22 21:59S 32°55' E 151°46'0 0.0
2017-Nov-22 21:29S 32°55' E 151°46'0 0.0
2017-Nov-22 20:59S 32°55' E 151°46'0 0.0
2017-Nov-22 20:29S 32°55' E 151°46'0 0.0
2017-Nov-22 19:59S 32°55' E 151°46'1 1.1
2017-Nov-22 19:30S 32°55' E 151°46'  
2017-Nov-20 00:27S 32°54' E 151°46'1 2.1
2017-Nov-19 23:59S 32°55' E 151°47'3 5.5
2017-Nov-19 23:30S 32°56' E 151°49'2 4.5
2017-Nov-19 23:00S 32°55' E 151°47'0 0.2
2017-Nov-19 22:30S 32°55' E 151°47'1 2.2
2017-Nov-19 22:00S 32°55' E 151°48'0 0.2
2017-Nov-19 21:30S 32°55' E 151°48'2 3.9
2017-Nov-19 21:00S 32°54' E 151°46'1 2.8
2017-Nov-19 20:30S 32°55' E 151°46'2 4.3
2017-Nov-19 20:00S 32°56' E 151°49'3 5.1
2017-Nov-19 19:28S 32°54' E 151°46'0 0.0
2017-Nov-19 18:58S 32°54' E 151°46'0 0.0
2017-Nov-19 18:28S 32°54' E 151°46'0 0.0
2017-Nov-19 17:58S 32°54' E 151°46'0 0.0
2017-Nov-19 17:28S 32°54' E 151°46'0 0.0
2017-Nov-19 16:58S 32°54' E 151°46'0 0.0
2017-Nov-19 16:28S 32°54' E 151°46'0 0.0
2017-Nov-19 15:58S 32°54' E 151°46'0 0.0
2017-Nov-19 15:25S 32°54' E 151°46'0 0.0
2017-Nov-19 14:58S 32°54' E 151°46'0 0.0
2017-Nov-19 14:28S 32°54' E 151°46'0 0.0
2017-Nov-19 13:58S 32°54' E 151°46'0 0.0
2017-Nov-19 13:28S 32°54' E 151°46'0 0.0
2017-Nov-19 12:58S 32°54' E 151°46'0 0.0
2017-Nov-19 12:25S 32°54' E 151°46'0 0.0
2017-Nov-19 11:55S 32°54' E 151°46'0 0.0
2017-Nov-19 11:28S 32°54' E 151°46'0 0.0
2017-Nov-19 10:58S 32°54' E 151°46'0 0.0
2017-Nov-19 10:28S 32°54' E 151°46'0 0.0
2017-Nov-19 09:58S 32°54' E 151°46'0 0.0
2017-Nov-19 09:25S 32°54' E 151°46'0 0.0
2017-Nov-19 08:58S 32°54' E 151°46'0 0.0
2017-Nov-19 08:28S 32°54' E 151°46'0 0.0
2017-Nov-19 07:58S 32°54' E 151°46'0 0.0
2017-Nov-19 07:28S 32°54' E 151°46'0 0.0
2017-Nov-19 06:58S 32°54' E 151°46'0 0.0
2017-Nov-19 06:28S 32°54' E 151°46'1 1.4
2017-Nov-19 06:00S 32°55' E 151°46'2 4.2
2017-Nov-19 05:30S 32°55' E 151°49'2 3.6
2017-Nov-19 05:01S 32°55' E 151°47'1 2.2
2017-Nov-19 04:30S 32°54' E 151°46'3 6.0
2017-Nov-19 04:00S 32°56' E 151°49'3 5.1
2017-Nov-19 03:30S 32°55' E 151°46'2 3.4
2017-Nov-19 03:00S 32°55' E 151°48'1 2.3
2017-Nov-19 02:30S 32°55' E 151°47'2 3.5
2017-Nov-19 01:58S 32°54' E 151°46'2 4.3
2017-Nov-19 01:30S 32°55' E 151°48'0 0.9
2017-Nov-19 01:00S 32°55' E 151°48'2 2.7
2017-Nov-19 00:23S 32°54' E 151°46'2 4.6
2017-Nov-19 00:01S 32°55' E 151°48'0 0.3
2017-Nov-18 23:31S 32°55' E 151°48'2 3.6
2017-Nov-18 23:00S 32°54' E 151°46'0 0.4
2017-Nov-18 22:29S 32°54' E 151°46'2 4.3
2017-Nov-18 21:56S 32°55' E 151°49'0 0.2
2017-Nov-18 21:30S 32°55' E 151°49'3 4.5
2017-Nov-18 20:56S 32°54' E 151°46'1 3.1
2017-Nov-18 20:30S 32°55' E 151°47'2 3.9
2017-Nov-18 20:01S 32°55' E 151°49'3 4.7
2017-Nov-18 19:28S 32°54' E 151°46'0 0.0
2017-Nov-18 18:58S 32°54' E 151°46'0 0.0
2017-Nov-18 18:28S 32°54' E 151°46'0 0.0
2017-Nov-18 17:58S 32°54' E 151°46'0 0.0
2017-Nov-18 17:28S 32°54' E 151°46'0 0.0
2017-Nov-18 16:58S 32°54' E 151°46'0 0.0
2017-Nov-18 16:28S 32°54' E 151°46'0 0.0
2017-Nov-18 15:58S 32°54' E 151°46'0 0.0
2017-Nov-18 15:28S 32°54' E 151°46'0 0.0
2017-Nov-18 14:58S 32°54' E 151°46'0 0.0
2017-Nov-18 14:28S 32°54' E 151°46'0 0.0
2017-Nov-18 13:58S 32°54' E 151°46'0 0.0
2017-Nov-18 13:28S 32°54' E 151°46'0 0.0
2017-Nov-18 12:58S 32°54' E 151°46'0 0.0
2017-Nov-18 12:28S 32°54' E 151°46'0 0.0
2017-Nov-18 11:58S 32°54' E 151°46'0 0.0
2017-Nov-18 11:28S 32°54' E 151°46'0 0.0
2017-Nov-18 10:55S 32°54' E 151°46'0 0.0
2017-Nov-18 10:28S 32°54' E 151°46'0 0.0
2017-Nov-18 09:58S 32°54' E 151°46'0 0.0
2017-Nov-18 09:28S 32°54' E 151°46'0 0.0
2017-Nov-18 08:58S 32°54' E 151°46'0 0.0
2017-Nov-18 08:28S 32°54' E 151°46'0 0.0
2017-Nov-18 07:58S 32°54' E 151°46'0 0.0
2017-Nov-18 07:28S 32°54' E 151°46'0 0.0
2017-Nov-18 06:58S 32°54' E 151°46'0 0.0
2017-Nov-18 06:28S 32°54' E 151°46'1 1.1
2017-Nov-18 05:59S 32°54' E 151°46'1 2.2
2017-Nov-18 05:31S 32°55' E 151°46'3 6.2
2017-Nov-18 05:01S 32°56' E 151°49'3 6.3
2017-Nov-18 04:31S 32°54' E 151°46'1 1.4
2017-Nov-18 03:57S 32°54' E 151°46'2 5.3
2017-Nov-18 03:31S 32°55' E 151°48'0 0.5
2017-Nov-18 03:01S 32°55' E 151°48'1 2.6
2017-Nov-18 02:28S 32°55' E 151°47'2 5.3
2017-Nov-18 02:01S 32°56' E 151°49'3 5.2
2017-Nov-18 01:31S 32°55' E 151°46'1 2.1
2017-Nov-18 01:00S 32°54' E 151°46'2 4.7
2017-Nov-18 00:31S 32°55' E 151°48'0 1.0
2017-Nov-18 00:01S 32°55' E 151°48'2 3.8
2017-Nov-17 23:31S 32°54' E 151°46'1 1.1
2017-Nov-17 23:00S 32°54' E 151°46'3 5.6
2017-Nov-17 22:30S 32°56' E 151°49'2 4.5
2017-Nov-17 22:00S 32°55' E 151°47'1 2.1
2017-Nov-17 21:26S 32°54' E 151°46'3 5.8
2017-Nov-17 21:00S 32°55' E 151°49'2 3.0
2017-Nov-17 20:31S 32°55' E 151°47'0 0.9
2017-Nov-17 20:00S 32°55' E 151°47'1 1.8
2017-Nov-17 19:28S 32°54' E 151°46'0 0.0
2017-Nov-17 18:58S 32°54' E 151°46'0 0.0
2017-Nov-17 18:28S 32°54' E 151°46'0 0.0
2017-Nov-17 17:58S 32°54' E 151°46'0 0.0
2017-Nov-17 17:28S 32°54' E 151°46'0 0.0
2017-Nov-17 16:58S 32°54' E 151°46'0 0.0
2017-Nov-17 16:28S 32°54' E 151°46'0 0.0
2017-Nov-17 15:58S 32°54' E 151°46'0 0.0
2017-Nov-17 15:28S 32°54' E 151°46'0 0.0
2017-Nov-17 14:58S 32°54' E 151°46'0 0.0
2017-Nov-17 14:28S 32°54' E 151°46'0 0.0
2017-Nov-17 13:58S 32°54' E 151°46'0 0.0
2017-Nov-17 13:28S 32°54' E 151°46'0 0.0
2017-Nov-17 12:58S 32°54' E 151°46'0 0.0
2017-Nov-17 12:19S 32°54' E 151°46'0 0.0
2017-Nov-17 11:58S 32°54' E 151°46'0 0.0
2017-Nov-17 11:19S 32°54' E 151°46'0 0.0
2017-Nov-17 10:58S 32°54' E 151°46'0 0.0
2017-Nov-17 10:28S 32°54' E 151°46'0 0.0
2017-Nov-17 09:46S 32°54' E 151°46'0 0.0
2017-Nov-17 09:28S 32°54' E 151°46'0 0.0
2017-Nov-17 08:58S 32°54' E 151°46'0 0.0
2017-Nov-17 08:19S 32°54' E 151°46'0 0.0
2017-Nov-17 07:55S 32°54' E 151°46'0 0.0
2017-Nov-17 07:28S 32°54' E 151°46'0 0.0
2017-Nov-17 06:58S 32°54' E 151°46'2 3.2
2017-Nov-17 06:29S 32°55' E 151°48'1 3.0
2017-Nov-17 06:00S 32°56' E 151°49'3 5.7
2017-Nov-17 05:30S 32°54' E 151°46'0 0.1
2017-Nov-17 05:00S 32°54' E 151°46'3 6.5
2017-Nov-17 04:30S 32°56' E 151°49'3 5.9
2017-Nov-17 04:00S 32°54' E 151°46'1 2.1
2017-Nov-17 03:28S 32°53' E 151°46'2 4.8
2017-Nov-17 03:00S 32°55' E 151°48'1 1.3
2017-Nov-17 02:30S 32°55' E 151°49'1 2.6
2017-Nov-17 02:00S 32°55' E 151°47'2 2.8
2017-Nov-17 01:18S 32°53' E 151°46'2 6.3
2017-Nov-17 00:59S 32°55' E 151°47'1 2.9
2017-Nov-17 00:30S 32°55' E 151°49'2 4.2
2017-Nov-16 23:58S 32°54' E 151°46'1 1.6
2017-Nov-16 23:30S 32°53' E 151°46'3 5.2
2017-Nov-16 23:00S 32°55' E 151°48'1 1.8
2017-Nov-16 22:30S 32°55' E 151°47'2 3.6
2017-Nov-16 21:52S 32°53' E 151°46'2 5.5
2017-Nov-16 21:29S 32°55' E 151°47'2 3.8
2017-Nov-16 21:00S 32°56' E 151°49'2 4.8
2017-Nov-16 20:30S 32°55' E 151°46'1 2.4
2017-Nov-16 19:59S 32°54' E 151°46'1 1.0
2017-Nov-16 19:30S 32°54' E 151°46'0 0.0
2017-Nov-16 18:59S 32°54' E 151°46'0 0.0
2017-Nov-16 18:30S 32°54' E 151°46'0 0.0
2017-Nov-16 17:56S 32°54' E 151°46'0 0.0
2017-Nov-16 17:30S 32°54' E 151°46'0 0.0
2017-Nov-16 16:59S 32°54' E 151°46'0 0.0
2017-Nov-16 16:30S 32°54' E 151°46'0 0.0
2017-Nov-16 15:57S 32°54' E 151°46'0 0.0
2017-Nov-16 15:30S 32°54' E 151°46'0 0.0
2017-Nov-16 15:00S 32°54' E 151°46'0 0.0
2017-Nov-16 14:29S 32°54' E 151°46'0 0.0
2017-Nov-16 13:56S 32°54' E 151°46'0 0.0
2017-Nov-16 13:30S 32°54' E 151°46'0 0.0
2017-Nov-16 13:00S 32°54' E 151°46'0 0.0
2017-Nov-16 12:30S 32°54' E 151°46'0 0.0
2017-Nov-16 12:00S 32°54' E 151°46'0 0.0
2017-Nov-16 11:30S 32°54' E 151°46'0 0.0
2017-Nov-16 10:59S 32°54' E 151°46'0 0.0
2017-Nov-16 10:30S 32°54' E 151°46'0 0.0
2017-Nov-16 09:59S 32°54' E 151°46'0 0.0
2017-Nov-16 09:30S 32°54' E 151°46'0 0.0
2017-Nov-16 09:00S 32°54' E 151°46'0 0.0
2017-Nov-16 08:29S 32°54' E 151°46'0 0.0
2017-Nov-16 08:00S 32°54' E 151°46'0 0.0
2017-Nov-16 07:29S 32°54' E 151°46'0 0.0
2017-Nov-16 06:59S 32°54' E 151°46'0 0.0
2017-Nov-16 06:30S 32°54' E 151°46'3 5.6
2017-Nov-16 06:00S 32°56' E 151°49'2 4.0
2017-Nov-16 05:31S 32°55' E 151°47'2 3.1
2017-Nov-16 04:54S 32°53' E 151°46'2 5.8
2017-Nov-16 04:30S 32°55' E 151°48'0 0.9
2017-Nov-16 04:00S 32°55' E 151°48'2 4.2
2017-Nov-16 03:28S 32°53' E 151°46'1 2.3
2017-Nov-16 03:00S 32°55' E 151°46'3 5.9
2017-Nov-16 02:30S 32°56' E 151°49'3 5.4
2017-Nov-16 02:00S 32°55' E 151°46'1 2.1
2017-Nov-16 01:21S 32°53' E 151°46'1 3.8
2017-Nov-16 01:00S 32°55' E 151°46'3 5.2
2017-Nov-16 00:31S 32°56' E 151°49'3 5.7
2017-Nov-16 00:01S 32°54' E 151°46'1 2.1
2017-Nov-15 23:30S 32°53' E 151°46'3 6.0
2017-Nov-15 23:00S 32°55' E 151°49'1 2.7
2017-Nov-15 22:30S 32°55' E 151°47'2 2.2
2017-Nov-15 21:41S 32°54' E 151°46'2 8.6
2017-Nov-15 21:30S 32°55' E 151°47'2 3.5
2017-Nov-15 21:00S 32°55' E 151°49'2 4.1
2017-Nov-15 20:30S 32°55' E 151°46'1 2.4
2017-Nov-15 19:53S 32°53' E 151°46'1 2.3
2017-Nov-15 19:28S 32°54' E 151°46'0 0.0
2017-Nov-15 18:58S 32°54' E 151°46'0 0.0
2017-Nov-15 18:28S 32°54' E 151°46'0 0.0
2017-Nov-15 17:58S 32°54' E 151°46'0 0.0
2017-Nov-15 17:28S 32°54' E 151°46'0 0.0
2017-Nov-15 16:55S 32°54' E 151°46'0 0.0
2017-Nov-15 16:25S 32°54' E 151°46'0 0.0
2017-Nov-15 15:58S 32°54' E 151°46'0 0.0
2017-Nov-15 15:28S 32°54' E 151°46'0 0.0
2017-Nov-15 14:55S 32°54' E 151°46'0 0.0
2017-Nov-15 14:28S 32°54' E 151°46'0 0.0
2017-Nov-15 13:58S 32°54' E 151°46'0 0.0
2017-Nov-15 13:28S 32°54' E 151°46'0 0.0
2017-Nov-15 12:55S 32°54' E 151°46'0 0.0
2017-Nov-15 12:28S 32°54' E 151°46'0 0.0
2017-Nov-15 11:52S 32°54' E 151°46'0 0.0
2017-Nov-15 11:28S 32°54' E 151°46'0 0.0
2017-Nov-15 10:58S 32°54' E 151°46'0 0.0
2017-Nov-15 10:25S 32°54' E 151°46'0 0.0
2017-Nov-15 09:58S 32°54' E 151°46'0 0.0
2017-Nov-15 08:58S 32°54' E 151°46'0 0.0
2017-Nov-15 08:28S 32°54' E 151°46'0 0.0
2017-Nov-15 07:55S 32°54' E 151°46'0 0.0
2017-Nov-15 07:28S 32°54' E 151°46'0 0.0
2017-Nov-15 06:58S 32°54' E 151°46'0 0.1
2017-Nov-15 06:30S 32°54' E 151°46'2 4.8
2017-Nov-15 06:00S 32°55' E 151°49'1 2.9
2017-Nov-15 05:30S 32°55' E 151°47'2 3.7
2017-Nov-15 04:58S 32°53' E 151°46'2 4.9
2017-Nov-15 04:30S 32°55' E 151°48'0 0.0
2017-Nov-15 04:01S 32°55' E 151°48'2 3.3
2017-Nov-15 03:30S 32°54' E 151°46'0 0.1
2017-Nov-15 02:55S 32°54' E 151°46'1 3.5
2017-Nov-15 02:30S 32°55' E 151°47'1 2.2
2017-Nov-15 02:00S 32°55' E 151°49'3 5.7
2017-Nov-15 01:30S 32°53' E 151°46'1 2.4
2017-Nov-15 01:00S 32°55' E 151°46'3 5.4
2017-Nov-15 00:30S 32°56' E 151°49'3 5.9
2017-Nov-15 00:00S 32°54' E 151°46'1 1.2
2017-Nov-14 23:29S 32°54' E 151°46'1 2.3
2017-Nov-14 23:01S 32°55' E 151°46'1 1.2
2017-Nov-14 22:29S 32°55' E 151°46'0 0.0
2017-Nov-14 21:59S 32°55' E 151°46'0 0.0
2017-Nov-14 21:29S 32°55' E 151°46'0 0.0
2017-Nov-14 20:59S 32°55' E 151°46'0 0.0
2017-Nov-14 20:29S 32°55' E 151°46'0 0.9
2017-Nov-14 20:00S 32°55' E 151°47'1 2.4
2017-Nov-14 19:30S 32°54' E 151°46'0 0.0
2017-Nov-14 19:00S 32°54' E 151°46'0 0.0
2017-Nov-14 18:30S 32°54' E 151°46'0 0.0
2017-Nov-14 18:00S 32°54' E 151°46'0 0.0
2017-Nov-14 17:30S 32°54' E 151°46'0 0.0
2017-Nov-14 17:00S 32°54' E 151°46'0 0.0
2017-Nov-14 16:30S 32°54' E 151°46'0 0.0
2017-Nov-14 16:00S 32°54' E 151°46'0 0.0
2017-Nov-14 15:30S 32°54' E 151°46'0 0.0
2017-Nov-14 15:00S 32°54' E 151°46'0 0.0
2017-Nov-14 14:30S 32°54' E 151°46'0 0.0
2017-Nov-14 13:57S 32°54' E 151°46'0 0.0
2017-Nov-14 13:30S 32°54' E 151°46'0 0.0
2017-Nov-14 13:00S 32°54' E 151°46'0 0.0
2017-Nov-14 12:30S 32°54' E 151°46'0 0.0
2017-Nov-14 12:00S 32°54' E 151°46'0 0.0
2017-Nov-14 11:30S 32°54' E 151°46'0 0.0
2017-Nov-14 11:00S 32°54' E 151°46'0 0.0
2017-Nov-14 10:30S 32°54' E 151°46'0 0.0
2017-Nov-14 10:00S 32°54' E 151°46'0 0.0
2017-Nov-14 09:30S 32°54' E 151°46'0 0.0
2017-Nov-14 09:00S 32°54' E 151°46'0 0.0
2017-Nov-14 08:30S 32°54' E 151°46'0 0.0
2017-Nov-14 08:00S 32°54' E 151°46'0 0.0
2017-Nov-14 07:30S 32°54' E 151°46'0 0.0
2017-Nov-14 07:00S 32°54' E 151°46'0 0.0
2017-Nov-14 06:30S 32°54' E 151°46'0 0.5
2017-Nov-14 05:59S 32°54' E 151°46'2 3.4
2017-Nov-14 05:30S 32°55' E 151°48'1 2.0
2017-Nov-14 05:00S 32°55' E 151°49'3 3.8
2017-Nov-14 04:16S 32°54' E 151°46'2 5.9
2017-Nov-14 04:00S 32°55' E 151°47'2 3.1
2017-Nov-14 03:31S 32°55' E 151°49'3 5.1
2017-Nov-14 03:01S 32°54' E 151°46'0 0.4
2017-Nov-14 02:28S 32°54' E 151°46'3 6.7
2017-Nov-14 02:00S 32°56' E 151°49'3 5.3
2017-Nov-14 01:30S 32°54' E 151°46'1 1.3
2017-Nov-14 00:52S 32°54' E 151°46'1 3.9
2017-Nov-14 00:30S 32°55' E 151°47'2 4.9
2017-Nov-14 00:00S 32°56' E 151°49'2 4.8
2017-Nov-13 23:30S 32°55' E 151°47'2 2.9
2017-Nov-13 22:55S 32°53' E 151°46'2 5.2
2017-Nov-13 22:30S 32°55' E 151°47'1 1.2
2017-Nov-13 22:00S 32°55' E 151°48'1 0.0
2017-Nov-13 02:00S 32°55' E 151°47'1 2.1
2017-Nov-13 01:30S 32°55' E 151°48'2 4.3
2017-Nov-13 01:00S 32°54' E 151°46'1 1.2
2017-Nov-13 00:30S 32°54' E 151°46'3 6.2
2017-Nov-13 00:00S 32°56' E 151°49'3 5.6
2017-Nov-12 23:29S 32°55' E 151°46'1 1.3
2017-Nov-12 22:50S 32°54' E 151°46'2 5.4
2017-Nov-12 22:30S 32°55' E 151°47'1 2.7
2017-Nov-12 22:00S 32°55' E 151°49'  
Track history (hours):
 
Tides and Currents Weather Stations Pressure Air Temp Water Temp Dewpoint Dewpoint Depression Visibility Wind Speed Wind Dir Waves Ship Positions

David Allan

Last reported at 2017-Nov-22 21:59 UTC. Time now 2017-Nov-22 22:12 UTC.
Position S 32°55' E 151°46'.

Length 70 m.

Type: Dredging. MMSI: 503541000.

Date/timePositionNaut miles runAvg speedWind from/ knotsBaromVisibWave heightAir tempDewpointWater temp
2017-Nov-22 21:59S 32°55' E 151°46'0 0.0
2017-Nov-22 21:29S 32°55' E 151°46'0 0.0
2017-Nov-22 20:59S 32°55' E 151°46'0 0.0
2017-Nov-22 20:29S 32°55' E 151°46'0 0.0
2017-Nov-22 19:59S 32°55' E 151°46'1 1.1
2017-Nov-22 19:30S 32°55' E 151°46'  
2017-Nov-20 00:27S 32°54' E 151°46'1 2.1
2017-Nov-19 23:59S 32°55' E 151°47'3 5.5
2017-Nov-19 23:30S 32°56' E 151°49'2 4.5
2017-Nov-19 23:00S 32°55' E 151°47'0 0.2
2017-Nov-19 22:30S 32°55' E 151°47'1 2.2
2017-Nov-19 22:00S 32°55' E 151°48'0 0.2
2017-Nov-19 21:30S 32°55' E 151°48'2 3.9
2017-Nov-19 21:00S 32°54' E 151°46'1 2.8
2017-Nov-19 20:30S 32°55' E 151°46'2 4.3
2017-Nov-19 20:00S 32°56' E 151°49'3 5.1
2017-Nov-19 19:28S 32°54' E 151°46'0 0.0
2017-Nov-19 18:58S 32°54' E 151°46'0 0.0
2017-Nov-19 18:28S 32°54' E 151°46'0 0.0
2017-Nov-19 17:58S 32°54' E 151°46'0 0.0
2017-Nov-19 17:28S 32°54' E 151°46'0 0.0
2017-Nov-19 16:58S 32°54' E 151°46'0 0.0
2017-Nov-19 16:28S 32°54' E 151°46'0 0.0
2017-Nov-19 15:58S 32°54' E 151°46'0 0.0
2017-Nov-19 15:25S 32°54' E 151°46'0 0.0
2017-Nov-19 14:58S 32°54' E 151°46'0 0.0
2017-Nov-19 14:28S 32°54' E 151°46'0 0.0
2017-Nov-19 13:58S 32°54' E 151°46'0 0.0
2017-Nov-19 13:28S 32°54' E 151°46'0 0.0
2017-Nov-19 12:58S 32°54' E 151°46'0 0.0
2017-Nov-19 12:25S 32°54' E 151°46'0 0.0
2017-Nov-19 11:55S 32°54' E 151°46'0 0.0
2017-Nov-19 11:28S 32°54' E 151°46'0 0.0
2017-Nov-19 10:58S 32°54' E 151°46'0 0.0
2017-Nov-19 10:28S 32°54' E 151°46'0 0.0
2017-Nov-19 09:58S 32°54' E 151°46'0 0.0
2017-Nov-19 09:25S 32°54' E 151°46'0 0.0
2017-Nov-19 08:58S 32°54' E 151°46'0 0.0
2017-Nov-19 08:28S 32°54' E 151°46'0 0.0
2017-Nov-19 07:58S 32°54' E 151°46'0 0.0
2017-Nov-19 07:28S 32°54' E 151°46'0 0.0
2017-Nov-19 06:58S 32°54' E 151°46'0 0.0
2017-Nov-19 06:28S 32°54' E 151°46'1 1.4
2017-Nov-19 06:00S 32°55' E 151°46'2 4.2
2017-Nov-19 05:30S 32°55' E 151°49'2 3.6
2017-Nov-19 05:01S 32°55' E 151°47'1 2.2
2017-Nov-19 04:30S 32°54' E 151°46'3 6.0
2017-Nov-19 04:00S 32°56' E 151°49'3 5.1
2017-Nov-19 03:30S 32°55' E 151°46'2 3.4
2017-Nov-19 03:00S 32°55' E 151°48'1 2.3
2017-Nov-19 02:30S 32°55' E 151°47'2 3.5
2017-Nov-19 01:58S 32°54' E 151°46'2 4.3
2017-Nov-19 01:30S 32°55' E 151°48'0 0.9
2017-Nov-19 01:00S 32°55' E 151°48'2 2.7
2017-Nov-19 00:23S 32°54' E 151°46'2 4.6
2017-Nov-19 00:01S 32°55' E 151°48'0 0.3
2017-Nov-18 23:31S 32°55' E 151°48'2 3.6
2017-Nov-18 23:00S 32°54' E 151°46'0 0.4
2017-Nov-18 22:29S 32°54' E 151°46'2 4.3
2017-Nov-18 21:56S 32°55' E 151°49'0 0.2
2017-Nov-18 21:30S 32°55' E 151°49'3 4.5
2017-Nov-18 20:56S 32°54' E 151°46'1 3.1
2017-Nov-18 20:30S 32°55' E 151°47'2 3.9
2017-Nov-18 20:01S 32°55' E 151°49'3 4.7
2017-Nov-18 19:28S 32°54' E 151°46'0 0.0
2017-Nov-18 18:58S 32°54' E 151°46'0 0.0
2017-Nov-18 18:28S 32°54' E 151°46'0 0.0
2017-Nov-18 17:58S 32°54' E 151°46'0 0.0
2017-Nov-18 17:28S 32°54' E 151°46'0 0.0
2017-Nov-18 16:58S 32°54' E 151°46'0 0.0
2017-Nov-18 16:28S 32°54' E 151°46'0 0.0
2017-Nov-18 15:58S 32°54' E 151°46'0 0.0
2017-Nov-18 15:28S 32°54' E 151°46'0 0.0
2017-Nov-18 14:58S 32°54' E 151°46'0 0.0
2017-Nov-18 14:28S 32°54' E 151°46'0 0.0
2017-Nov-18 13:58S 32°54' E 151°46'0 0.0
2017-Nov-18 13:28S 32°54' E 151°46'0 0.0
2017-Nov-18 12:58S 32°54' E 151°46'0 0.0
2017-Nov-18 12:28S 32°54' E 151°46'0 0.0
2017-Nov-18 11:58S 32°54' E 151°46'0 0.0
2017-Nov-18 11:28S 32°54' E 151°46'0 0.0
2017-Nov-18 10:55S 32°54' E 151°46'0 0.0
2017-Nov-18 10:28S 32°54' E 151°46'0 0.0
2017-Nov-18 09:58S 32°54' E 151°46'0 0.0
2017-Nov-18 09:28S 32°54' E 151°46'0 0.0
2017-Nov-18 08:58S 32°54' E 151°46'0 0.0
2017-Nov-18 08:28S 32°54' E 151°46'0 0.0
2017-Nov-18 07:58S 32°54' E 151°46'0 0.0
2017-Nov-18 07:28S 32°54' E 151°46'0 0.0
2017-Nov-18 06:58S 32°54' E 151°46'0 0.0
2017-Nov-18 06:28S 32°54' E 151°46'1 1.1
2017-Nov-18 05:59S 32°54' E 151°46'1 2.2
2017-Nov-18 05:31S 32°55' E 151°46'3 6.2
2017-Nov-18 05:01S 32°56' E 151°49'3 6.3
2017-Nov-18 04:31S 32°54' E 151°46'1 1.4
2017-Nov-18 03:57S 32°54' E 151°46'2 5.3
2017-Nov-18 03:31S 32°55' E 151°48'0 0.5
2017-Nov-18 03:01S 32°55' E 151°48'1 2.6
2017-Nov-18 02:28S 32°55' E 151°47'2 5.3
2017-Nov-18 02:01S 32°56' E 151°49'3 5.2
2017-Nov-18 01:31S 32°55' E 151°46'1 2.1
2017-Nov-18 01:00S 32°54' E 151°46'2 4.7
2017-Nov-18 00:31S 32°55' E 151°48'0 1.0
2017-Nov-18 00:01S 32°55' E 151°48'2 3.8
2017-Nov-17 23:31S 32°54' E 151°46'1 1.1
2017-Nov-17 23:00S 32°54' E 151°46'3 5.6
2017-Nov-17 22:30S 32°56' E 151°49'2 4.5
2017-Nov-17 22:00S 32°55' E 151°47'1 2.1
2017-Nov-17 21:26S 32°54' E 151°46'3 5.8
2017-Nov-17 21:00S 32°55' E 151°49'2 3.0
2017-Nov-17 20:31S 32°55' E 151°47'0 0.9
2017-Nov-17 20:00S 32°55' E 151°47'1 1.8
2017-Nov-17 19:28S 32°54' E 151°46'0 0.0
2017-Nov-17 18:58S 32°54' E 151°46'0 0.0
2017-Nov-17 18:28S 32°54' E 151°46'0 0.0
2017-Nov-17 17:58S 32°54' E 151°46'0 0.0
2017-Nov-17 17:28S 32°54' E 151°46'0 0.0
2017-Nov-17 16:58S 32°54' E 151°46'0 0.0
2017-Nov-17 16:28S 32°54' E 151°46'0 0.0
2017-Nov-17 15:58S 32°54' E 151°46'0 0.0
2017-Nov-17 15:28S 32°54' E 151°46'0 0.0
2017-Nov-17 14:58S 32°54' E 151°46'0 0.0
2017-Nov-17 14:28S 32°54' E 151°46'0 0.0
2017-Nov-17 13:58S 32°54' E 151°46'0 0.0
2017-Nov-17 13:28S 32°54' E 151°46'0 0.0
2017-Nov-17 12:58S 32°54' E 151°46'0 0.0
2017-Nov-17 12:19S 32°54' E 151°46'0 0.0
2017-Nov-17 11:58S 32°54' E 151°46'0 0.0
2017-Nov-17 11:19S 32°54' E 151°46'0 0.0
2017-Nov-17 10:58S 32°54' E 151°46'0 0.0
2017-Nov-17 10:28S 32°54' E 151°46'0 0.0
2017-Nov-17 09:46S 32°54' E 151°46'0 0.0
2017-Nov-17 09:28S 32°54' E 151°46'0 0.0
2017-Nov-17 08:58S 32°54' E 151°46'0 0.0
2017-Nov-17 08:19S 32°54' E 151°46'0 0.0
2017-Nov-17 07:55S 32°54' E 151°46'0 0.0
2017-Nov-17 07:28S 32°54' E 151°46'0 0.0
2017-Nov-17 06:58S 32°54' E 151°46'2 3.2
2017-Nov-17 06:29S 32°55' E 151°48'1 3.0
2017-Nov-17 06:00S 32°56' E 151°49'3 5.7
2017-Nov-17 05:30S 32°54' E 151°46'0 0.1
2017-Nov-17 05:00S 32°54' E 151°46'3 6.5
2017-Nov-17 04:30S 32°56' E 151°49'3 5.9
2017-Nov-17 04:00S 32°54' E 151°46'1 2.1
2017-Nov-17 03:28S 32°53' E 151°46'2 4.8
2017-Nov-17 03:00S 32°55' E 151°48'1 1.3
2017-Nov-17 02:30S 32°55' E 151°49'1 2.6
2017-Nov-17 02:00S 32°55' E 151°47'2 2.8
2017-Nov-17 01:18S 32°53' E 151°46'2 6.3
2017-Nov-17 00:59S 32°55' E 151°47'1 2.9
2017-Nov-17 00:30S 32°55' E 151°49'2 4.2
2017-Nov-16 23:58S 32°54' E 151°46'1 1.6
2017-Nov-16 23:30S 32°53' E 151°46'3 5.2
2017-Nov-16 23:00S 32°55' E 151°48'1 1.8
2017-Nov-16 22:30S 32°55' E 151°47'2 3.6
2017-Nov-16 21:52S 32°53' E 151°46'2 5.5
2017-Nov-16 21:29S 32°55' E 151°47'2 3.8
2017-Nov-16 21:00S 32°56' E 151°49'2 4.8
2017-Nov-16 20:30S 32°55' E 151°46'1 2.4
2017-Nov-16 19:59S 32°54' E 151°46'1 1.0
2017-Nov-16 19:30S 32°54' E 151°46'0 0.0
2017-Nov-16 18:59S 32°54' E 151°46'0 0.0
2017-Nov-16 18:30S 32°54' E 151°46'0 0.0
2017-Nov-16 17:56S 32°54' E 151°46'0 0.0
2017-Nov-16 17:30S 32°54' E 151°46'0 0.0
2017-Nov-16 16:59S 32°54' E 151°46'0 0.0
2017-Nov-16 16:30S 32°54' E 151°46'0 0.0
2017-Nov-16 15:57S 32°54' E 151°46'0 0.0
2017-Nov-16 15:30S 32°54' E 151°46'0 0.0
2017-Nov-16 15:00S 32°54' E 151°46'0 0.0
2017-Nov-16 14:29S 32°54' E 151°46'0 0.0
2017-Nov-16 13:56S 32°54' E 151°46'0 0.0
2017-Nov-16 13:30S 32°54' E 151°46'0 0.0
2017-Nov-16 13:00S 32°54' E 151°46'0 0.0
2017-Nov-16 12:30S 32°54' E 151°46'0 0.0
2017-Nov-16 12:00S 32°54' E 151°46'0 0.0
2017-Nov-16 11:30S 32°54' E 151°46'0 0.0
2017-Nov-16 10:59S 32°54' E 151°46'0 0.0
2017-Nov-16 10:30S 32°54' E 151°46'0 0.0
2017-Nov-16 09:59S 32°54' E 151°46'0 0.0
2017-Nov-16 09:30S 32°54' E 151°46'0 0.0
2017-Nov-16 09:00S 32°54' E 151°46'0 0.0
2017-Nov-16 08:29S 32°54' E 151°46'0 0.0
2017-Nov-16 08:00S 32°54' E 151°46'0 0.0
2017-Nov-16 07:29S 32°54' E 151°46'0 0.0
2017-Nov-16 06:59S 32°54' E 151°46'0 0.0
2017-Nov-16 06:30S 32°54' E 151°46'3 5.6
2017-Nov-16 06:00S 32°56' E 151°49'2 4.0
2017-Nov-16 05:31S 32°55' E 151°47'2 3.1
2017-Nov-16 04:54S 32°53' E 151°46'2 5.8
2017-Nov-16 04:30S 32°55' E 151°48'0 0.9
2017-Nov-16 04:00S 32°55' E 151°48'2 4.2
2017-Nov-16 03:28S 32°53' E 151°46'1 2.3
2017-Nov-16 03:00S 32°55' E 151°46'3 5.9
2017-Nov-16 02:30S 32°56' E 151°49'3 5.4
2017-Nov-16 02:00S 32°55' E 151°46'1 2.1
2017-Nov-16 01:21S 32°53' E 151°46'1 3.8
2017-Nov-16 01:00S 32°55' E 151°46'3 5.2
2017-Nov-16 00:31S 32°56' E 151°49'3 5.7
2017-Nov-16 00:01S 32°54' E 151°46'1 2.1
2017-Nov-15 23:30S 32°53' E 151°46'3 6.0
2017-Nov-15 23:00S 32°55' E 151°49'1 2.7
2017-Nov-15 22:30S 32°55' E 151°47'2 2.2
2017-Nov-15 21:41S 32°54' E 151°46'2 8.6
2017-Nov-15 21:30S 32°55' E 151°47'2 3.5
2017-Nov-15 21:00S 32°55' E 151°49'2 4.1
2017-Nov-15 20:30S 32°55' E 151°46'1 2.4
2017-Nov-15 19:53S 32°53' E 151°46'1 2.3
2017-Nov-15 19:28S 32°54' E 151°46'0 0.0
2017-Nov-15 18:58S 32°54' E 151°46'0 0.0
2017-Nov-15 18:28S 32°54' E 151°46'0 0.0
2017-Nov-15 17:58S 32°54' E 151°46'0 0.0
2017-Nov-15 17:28S 32°54' E 151°46'0 0.0
2017-Nov-15 16:55S 32°54' E 151°46'0 0.0
2017-Nov-15 16:25S 32°54' E 151°46'0 0.0
2017-Nov-15 15:58S 32°54' E 151°46'0 0.0
2017-Nov-15 15:28S 32°54' E 151°46'0 0.0
2017-Nov-15 14:55S 32°54' E 151°46'0 0.0
2017-Nov-15 14:28S 32°54' E 151°46'0 0.0
2017-Nov-15 13:58S 32°54' E 151°46'0 0.0
2017-Nov-15 13:28S 32°54' E 151°46'0 0.0
2017-Nov-15 12:55S 32°54' E 151°46'0 0.0
2017-Nov-15 12:28S 32°54' E 151°46'0 0.0
2017-Nov-15 11:52S 32°54' E 151°46'0 0.0
2017-Nov-15 11:28S 32°54' E 151°46'0 0.0
2017-Nov-15 10:58S 32°54' E 151°46'0 0.0
2017-Nov-15 10:25S 32°54' E 151°46'0 0.0
2017-Nov-15 09:58S 32°54' E 151°46'0 0.0
2017-Nov-15 08:58S 32°54' E 151°46'0 0.0
2017-Nov-15 08:28S 32°54' E 151°46'0 0.0
2017-Nov-15 07:55S 32°54' E 151°46'0 0.0
2017-Nov-15 07:28S 32°54' E 151°46'0 0.0
2017-Nov-15 06:58S 32°54' E 151°46'0 0.1
2017-Nov-15 06:30S 32°54' E 151°46'2 4.8
2017-Nov-15 06:00S 32°55' E 151°49'1 2.9
2017-Nov-15 05:30S 32°55' E 151°47'2 3.7
2017-Nov-15 04:58S 32°53' E 151°46'2 4.9
2017-Nov-15 04:30S 32°55' E 151°48'0 0.0
2017-Nov-15 04:01S 32°55' E 151°48'2 3.3
2017-Nov-15 03:30S 32°54' E 151°46'0 0.1
2017-Nov-15 02:55S 32°54' E 151°46'1 3.5
2017-Nov-15 02:30S 32°55' E 151°47'1 2.2
2017-Nov-15 02:00S 32°55' E 151°49'3 5.7
2017-Nov-15 01:30S 32°53' E 151°46'1 2.4
2017-Nov-15 01:00S 32°55' E 151°46'3 5.4
2017-Nov-15 00:30S 32°56' E 151°49'3 5.9
2017-Nov-15 00:00S 32°54' E 151°46'1 1.2
2017-Nov-14 23:29S 32°54' E 151°46'1 2.3
2017-Nov-14 23:01S 32°55' E 151°46'1 1.2
2017-Nov-14 22:29S 32°55' E 151°46'0 0.0
2017-Nov-14 21:59S 32°55' E 151°46'0 0.0
2017-Nov-14 21:29S 32°55' E 151°46'0 0.0
2017-Nov-14 20:59S 32°55' E 151°46'0 0.0
2017-Nov-14 20:29S 32°55' E 151°46'0 0.9
2017-Nov-14 20:00S 32°55' E 151°47'1 2.4
2017-Nov-14 19:30S 32°54' E 151°46'0 0.0
2017-Nov-14 19:00S 32°54' E 151°46'0 0.0
2017-Nov-14 18:30S 32°54' E 151°46'0 0.0
2017-Nov-14 18:00S 32°54' E 151°46'0 0.0
2017-Nov-14 17:30S 32°54' E 151°46'0 0.0
2017-Nov-14 17:00S 32°54' E 151°46'0 0.0
2017-Nov-14 16:30S 32°54' E 151°46'0 0.0
2017-Nov-14 16:00S 32°54' E 151°46'0 0.0
2017-Nov-14 15:30S 32°54' E 151°46'0 0.0
2017-Nov-14 15:00S 32°54' E 151°46'0 0.0
2017-Nov-14 14:30S 32°54' E 151°46'0 0.0
2017-Nov-14 13:57S 32°54' E 151°46'0 0.0
2017-Nov-14 13:30S 32°54' E 151°46'0 0.0
2017-Nov-14 13:00S 32°54' E 151°46'0 0.0
2017-Nov-14 12:30S 32°54' E 151°46'0 0.0
2017-Nov-14 12:00S 32°54' E 151°46'0 0.0
2017-Nov-14 11:30S 32°54' E 151°46'0 0.0
2017-Nov-14 11:00S 32°54' E 151°46'0 0.0
2017-Nov-14 10:30S 32°54' E 151°46'0 0.0
2017-Nov-14 10:00S 32°54' E 151°46'0 0.0
2017-Nov-14 09:30S 32°54' E 151°46'0 0.0
2017-Nov-14 09:00S 32°54' E 151°46'0 0.0
2017-Nov-14 08:30S 32°54' E 151°46'0 0.0
2017-Nov-14 08:00S 32°54' E 151°46'0 0.0
2017-Nov-14 07:30S 32°54' E 151°46'0 0.0
2017-Nov-14 07:00S 32°54' E 151°46'0 0.0
2017-Nov-14 06:30S 32°54' E 151°46'0 0.5
2017-Nov-14 05:59S 32°54' E 151°46'2 3.4
2017-Nov-14 05:30S 32°55' E 151°48'1 2.0
2017-Nov-14 05:00S 32°55' E 151°49'3 3.8
2017-Nov-14 04:16S 32°54' E 151°46'2 5.9
2017-Nov-14 04:00S 32°55' E 151°47'2 3.1
2017-Nov-14 03:31S 32°55' E 151°49'3 5.1
2017-Nov-14 03:01S 32°54' E 151°46'0 0.4
2017-Nov-14 02:28S 32°54' E 151°46'3 6.7
2017-Nov-14 02:00S 32°56' E 151°49'3 5.3
2017-Nov-14 01:30S 32°54' E 151°46'1 1.3
2017-Nov-14 00:52S 32°54' E 151°46'1 3.9
2017-Nov-14 00:30S 32°55' E 151°47'2 4.9
2017-Nov-14 00:00S 32°56' E 151°49'2 4.8
2017-Nov-13 23:30S 32°55' E 151°47'2 2.9
2017-Nov-13 22:55S 32°53' E 151°46'2 5.2
2017-Nov-13 22:30S 32°55' E 151°47'1 1.2
2017-Nov-13 22:00S 32°55' E 151°48'1 0.0
2017-Nov-13 02:00S 32°55' E 151°47'1 2.1
2017-Nov-13 01:30S 32°55' E 151°48'2 4.3
2017-Nov-13 01:00S 32°54' E 151°46'1 1.2
2017-Nov-13 00:30S 32°54' E 151°46'3 6.2
2017-Nov-13 00:00S 32°56' E 151°49'3 5.6
2017-Nov-12 23:29S 32°55' E 151°46'1 1.3
2017-Nov-12 22:50S 32°54' E 151°46'2 5.4
2017-Nov-12 22:30S 32°55' E 151°47'1 2.7
2017-Nov-12 22:00S 32°55' E 151°49'  

Dump ship's entire track history